Search METAR Data

METAR Data for EPBY:

EPBY 241500Z 01006KT 340V040 9999 SCT047 10/M01 Q1005